Galich, Russia
Current Conditions -  °F | °C
As of 7:30 PM on Friday 28 Nov 2014 (Local Time) from UUDL Reporting Station
Overcast Overcast  
Wind Chill: 19°   Ceiling: 500
Heat Index: 19°   Visibility: 6mi
Dew Point: 18°   Wind: 2mph
Humidity: 93%   Direction: 100°E
Pressure: 30.65"   Gusts: NA
Location:  58.38°N, 42.35°E
Report Text: UUDL 281630Z 10001MPS 9999 OVC005 M07/M08 Q1038 NOSIG RMKQBB170 QFE770 23000060
Loading
Personal Weather Stations






























Interactive Weather Map New forecast layout! Learn more

10-Day Weather Forecast

Advertisements
Track Severe Weather on mobile